sensor_id;sensor_type;location;lat;lon;timestamp;pressure;altitude;pressure_sealevel;temperature;humidity
41945;BME280;63122;52.424;13.458;2023-04-05T00:00:53;101824.72;;;3.86;75.66
41945;BME280;63122;52.424;13.458;2023-04-05T00:02:48;101812.59;;;3.85;75.27
41945;BME280;63122;52.424;13.458;2023-04-05T00:04:44;101816.59;;;3.75;74.32
41945;BME280;63122;52.424;13.458;2023-04-05T00:06:48;101817.69;;;3.71;76.01
41945;BME280;63122;52.424;13.458;2023-04-05T00:08:45;101823.06;;;3.68;77.88
41945;BME280;63122;52.424;13.458;2023-04-05T00:10:41;101811.94;;;3.64;78.44
41945;BME280;63122;52.424;13.458;2023-04-05T00:12:36;101813.72;;;3.64;78.69
41945;BME280;63122;52.424;13.458;2023-04-05T00:14:31;101812.25;;;3.58;77.66
41945;BME280;63122;52.424;13.458;2023-04-05T00:16:29;101814.31;;;3.51;79.31
41945;BME280;63122;52.424;13.458;2023-04-05T00:18:25;101813.41;;;3.52;81.23
41945;BME280;63122;52.424;13.458;2023-04-05T00:20:25;101810.78;;;3.52;82.20
41945;BME280;63122;52.424;13.458;2023-04-05T00:22:20;101813.50;;;3.51;85.50
41945;BME280;63122;52.424;13.458;2023-04-05T00:24:17;101810.09;;;3.49;88.04
41945;BME280;63122;52.424;13.458;2023-04-05T00:26:13;101819.91;;;3.43;88.78
41945;BME280;63122;52.424;13.458;2023-04-05T00:28:08;101813.25;;;3.38;89.73
41945;BME280;63122;52.424;13.458;2023-04-05T00:30:05;101815.94;;;3.36;90.52
41945;BME280;63122;52.424;13.458;2023-04-05T00:32:03;101810.00;;;3.33;92.89
41945;BME280;63122;52.424;13.458;2023-04-05T00:33:59;101817.16;;;3.29;92.80
41945;BME280;63122;52.424;13.458;2023-04-05T00:35:57;101815.47;;;3.28;92.60
41945;BME280;63122;52.424;13.458;2023-04-05T00:37:49;101805.97;;;3.27;92.21
41945;BME280;63122;52.424;13.458;2023-04-05T00:39:45;101798.19;;;3.25;91.57
41945;BME280;63122;52.424;13.458;2023-04-05T00:41:40;101811.44;;;3.21;91.22
41945;BME280;63122;52.424;13.458;2023-04-05T00:43:39;101808.94;;;3.19;91.15
41945;BME280;63122;52.424;13.458;2023-04-05T00:45:34;101806.38;;;3.17;90.77
41945;BME280;63122;52.424;13.458;2023-04-05T00:47:32;101803.94;;;3.14;90.86
41945;BME280;63122;52.424;13.458;2023-04-05T00:49:28;101806.53;;;3.14;91.96
41945;BME280;63122;52.424;13.458;2023-04-05T00:51:23;101804.19;;;3.10;92.15
41945;BME280;63122;52.424;13.458;2023-04-05T00:53:20;101806.78;;;3.10;91.61
41945;BME280;63122;52.424;13.458;2023-04-05T00:55:15;101807.84;;;3.06;88.57
41945;BME280;63122;52.424;13.458;2023-04-05T00:57:11;101805.31;;;3.04;90.12
41945;BME280;63122;52.424;13.458;2023-04-05T00:59:08;101802.63;;;3.06;92.83
41945;BME280;63122;52.424;13.458;2023-04-05T01:01:07;101806.09;;;3.06;92.89
41945;BME280;63122;52.424;13.458;2023-04-05T01:03:09;101799.09;;;3.07;92.56
41945;BME280;63122;52.424;13.458;2023-04-05T01:05:10;101796.78;;;3.00;91.61
41945;BME280;63122;52.424;13.458;2023-04-05T01:07:14;101797.72;;;2.99;90.20
41945;BME280;63122;52.424;13.458;2023-04-05T01:09:31;101792.50;;;2.99;90.13
41945;BME280;63122;52.424;13.458;2023-04-05T01:11:29;101801.94;;;3.02;90.46
41945;BME280;63122;52.424;13.458;2023-04-05T01:13:25;101801.03;;;3.03;89.75
41945;BME280;63122;52.424;13.458;2023-04-05T01:15:20;101797.50;;;3.04;89.01
41945;BME280;63122;52.424;13.458;2023-04-05T01:17:16;101804.47;;;3.03;88.64
41945;BME280;63122;52.424;13.458;2023-04-05T01:19:17;101795.88;;;3.01;88.18
41945;BME280;63122;52.424;13.458;2023-04-05T01:21:27;101796.78;;;3.00;87.42
41945;BME280;63122;52.424;13.458;2023-04-05T01:23:39;101792.44;;;3.01;87.42
41945;BME280;63122;52.424;13.458;2023-04-05T01:25:53;101794.19;;;3.00;86.91
41945;BME280;63122;52.424;13.458;2023-04-05T01:28:11;101797.81;;;2.98;86.53
41945;BME280;63122;52.424;13.458;2023-04-05T01:30:16;101798.63;;;2.98;85.86
41945;BME280;63122;52.424;13.458;2023-04-05T01:32:19;101792.50;;;2.99;86.05
41945;BME280;63122;52.424;13.458;2023-04-05T01:34:22;101784.06;;;2.94;86.16
41945;BME280;63122;52.424;13.458;2023-04-05T01:36:25;101791.31;;;2.87;85.20
41945;BME280;63122;52.424;13.458;2023-04-05T01:38:22;101785.78;;;2.76;87.01
41945;BME280;63122;52.424;13.458;2023-04-05T01:40:19;101789.22;;;2.77;87.84
41945;BME280;63122;52.424;13.458;2023-04-05T01:42:19;101789.53;;;2.70;88.75
41945;BME280;63122;52.424;13.458;2023-04-05T01:44:17;101786.00;;;2.71;89.25
41945;BME280;63122;52.424;13.458;2023-04-05T01:46:15;101778.41;;;2.67;89.91
41945;BME280;63122;52.424;13.458;2023-04-05T01:48:11;101787.06;;;2.67;90.69
41945;BME280;63122;52.424;13.458;2023-04-05T01:50:08;101787.16;;;2.66;91.73
41945;BME280;63122;52.424;13.458;2023-04-05T01:52:03;101782.00;;;2.64;92.44
41945;BME280;63122;52.424;13.458;2023-04-05T01:53:59;101776.84;;;2.63;93.12
41945;BME280;63122;52.424;13.458;2023-04-05T01:55:58;101775.09;;;2.63;92.22
41945;BME280;63122;52.424;13.458;2023-04-05T01:57:55;101780.31;;;2.63;91.25
41945;BME280;63122;52.424;13.458;2023-04-05T01:59:51;101778.47;;;2.65;91.07
41945;BME280;63122;52.424;13.458;2023-04-05T02:01:49;101772.34;;;2.66;91.51
41945;BME280;63122;52.424;13.458;2023-04-05T02:03:45;101771.53;;;2.66;92.51
41945;BME280;63122;52.424;13.458;2023-04-05T02:05:41;101775.16;;;2.62;92.71
41945;BME280;63122;52.424;13.458;2023-04-05T02:07:36;101774.47;;;2.58;92.60
41945;BME280;63122;52.424;13.458;2023-04-05T02:09:32;101771.25;;;2.53;93.41
41945;BME280;63122;52.424;13.458;2023-04-05T02:11:27;101765.47;;;2.46;93.21
41945;BME280;63122;52.424;13.458;2023-04-05T02:13:22;101761.34;;;2.42;93.50
41945;BME280;63122;52.424;13.458;2023-04-05T02:15:18;101773.63;;;2.38;93.88
41945;BME280;63122;52.424;13.458;2023-04-05T02:17:16;101768.91;;;2.27;93.63
41945;BME280;63122;52.424;13.458;2023-04-05T02:19:13;101773.34;;;2.25;96.63
41945;BME280;63122;52.424;13.458;2023-04-05T02:21:14;101775.03;;;2.26;97.27
41945;BME280;63122;52.424;13.458;2023-04-05T02:23:10;101760.28;;;2.27;96.45
41945;BME280;63122;52.424;13.458;2023-04-05T02:25:06;101763.84;;;2.24;96.02
41945;BME280;63122;52.424;13.458;2023-04-05T02:27:02;101775.19;;;2.23;96.38
41945;BME280;63122;52.424;13.458;2023-04-05T02:28:58;101766.59;;;2.21;96.84
41945;BME280;63122;52.424;13.458;2023-04-05T02:30:54;101766.59;;;2.21;97.39
41945;BME280;63122;52.424;13.458;2023-04-05T02:32:52;101763.44;;;2.14;97.23
41945;BME280;63122;52.424;13.458;2023-04-05T02:34:48;101766.38;;;2.07;97.60
41945;BME280;63122;52.424;13.458;2023-04-05T02:36:44;101765.69;;;2.03;97.46
41945;BME280;63122;52.424;13.458;2023-04-05T02:38:39;101764.69;;;2.06;96.86
41945;BME280;63122;52.424;13.458;2023-04-05T02:40:35;101763.00;;;2.05;98.87
41945;BME280;63122;52.424;13.458;2023-04-05T02:42:34;101763.84;;;2.05;95.33
41945;BME280;63122;52.424;13.458;2023-04-05T02:44:29;101761.16;;;2.07;94.12
41945;BME280;63122;52.424;13.458;2023-04-05T02:46:25;101755.19;;;2.05;91.54
41945;BME280;63122;52.424;13.458;2023-04-05T02:48:23;101756.03;;;2.05;90.14
41945;BME280;63122;52.424;13.458;2023-04-05T02:50:19;101762.09;;;2.06;89.07
41945;BME280;63122;52.424;13.458;2023-04-05T02:52:15;101757.00;;;2.03;90.05
41945;BME280;63122;52.424;13.458;2023-04-05T02:54:11;101757.16;;;1.99;89.72
41945;BME280;63122;52.424;13.458;2023-04-05T02:56:06;101764.00;;;2.02;89.27
41945;BME280;63122;52.424;13.458;2023-04-05T02:58:03;101762.38;;;1.99;89.54
41945;BME280;63122;52.424;13.458;2023-04-05T02:59:58;101750.34;;;1.97;89.42
41945;BME280;63122;52.424;13.458;2023-04-05T03:01:56;101756.66;;;1.91;89.63
41945;BME280;63122;52.424;13.458;2023-04-05T03:03:54;101754.84;;;1.93;89.31
41945;BME280;63122;52.424;13.458;2023-04-05T03:05:57;101748.00;;;1.91;89.50
41945;BME280;63122;52.424;13.458;2023-04-05T03:08:01;101750.41;;;1.95;90.07
41945;BME280;63122;52.424;13.458;2023-04-05T03:09:57;101755.56;;;1.97;89.94
41945;BME280;63122;52.424;13.458;2023-04-05T03:11:52;101745.34;;;1.92;89.99
41945;BME280;63122;52.424;13.458;2023-04-05T03:13:47;101739.56;;;1.85;92.05
41945;BME280;63122;52.424;13.458;2023-04-05T03:15:42;101737.72;;;1.87;92.42
41945;BME280;63122;52.424;13.458;2023-04-05T03:17:38;101744.00;;;1.83;92.70
41945;BME280;63122;52.424;13.458;2023-04-05T03:19:38;101738.78;;;1.83;94.43
41945;BME280;63122;52.424;13.458;2023-04-05T03:21:34;101743.78;;;1.88;94.98
41945;BME280;63122;52.424;13.458;2023-04-05T03:23:31;101742.09;;;1.87;95.03
41945;BME280;63122;52.424;13.458;2023-04-05T03:25:26;101739.56;;;1.85;95.71
41945;BME280;63122;52.424;13.458;2023-04-05T03:27:21;101731.75;;;1.85;96.13
41945;BME280;63122;52.424;13.458;2023-04-05T03:29:17;101735.91;;;1.90;96.44
41945;BME280;63122;52.424;13.458;2023-04-05T03:31:12;101739.56;;;1.85;96.93
41945;BME280;63122;52.424;13.458;2023-04-05T03:33:11;101732.81;;;1.81;97.72
41945;BME280;63122;52.424;13.458;2023-04-05T03:35:09;101737.81;;;1.86;97.97
41945;BME280;63122;52.424;13.458;2023-04-05T03:37:08;101734.06;;;1.92;97.34
41945;BME280;63122;52.424;13.458;2023-04-05T03:39:03;101735.75;;;1.93;97.63
41945;BME280;63122;52.424;13.458;2023-04-05T03:41:00;101733.16;;;1.93;97.53
41945;BME280;63122;52.424;13.458;2023-04-05T03:42:56;101732.38;;;1.91;97.84
41945;BME280;63122;52.424;13.458;2023-04-05T03:44:52;101733.28;;;1.90;98.83
41945;BME280;63122;52.424;13.458;2023-04-05T03:46:47;101731.56;;;1.90;99.40
41945;BME280;63122;52.424;13.458;2023-04-05T03:48:42;101729.72;;;1.92;99.73
41945;BME280;63122;52.424;13.458;2023-04-05T03:50:40;101724.56;;;1.91;100.00
41945;BME280;63122;52.424;13.458;2023-04-05T03:52:36;101725.63;;;1.86;100.00
41945;BME280;63122;52.424;13.458;2023-04-05T03:54:31;101725.56;;;1.88;100.00
41945;BME280;63122;52.424;13.458;2023-04-05T03:56:26;101721.28;;;1.87;100.00
41945;BME280;63122;52.424;13.458;2023-04-05T03:58:21;101730.84;;;1.86;100.00
41945;BME280;63122;52.424;13.458;2023-04-05T04:00:17;101726.50;;;1.87;100.00
41945;BME280;63122;52.424;13.458;2023-04-05T04:02:14;101722.34;;;1.83;100.00
41945;BME280;63122;52.424;13.458;2023-04-05T04:04:10;101723.31;;;1.80;100.00
41945;BME280;63122;52.424;13.458;2023-04-05T04:06:08;101725.13;;;1.78;100.00
41945;BME280;63122;52.424;13.458;2023-04-05T04:08:04;101725.19;;;1.77;100.00
41945;BME280;63122;52.424;13.458;2023-04-05T04:10:01;101723.78;;;1.69;100.00
41945;BME280;63122;52.424;13.458;2023-04-05T04:11:56;101720.91;;;1.76;100.00
41945;BME280;63122;52.424;13.458;2023-04-05T04:13:52;101721.69;;;1.78;100.00
41945;BME280;63122;52.424;13.458;2023-04-05T04:15:47;101720.06;;;1.75;100.00
41945;BME280;63122;52.424;13.458;2023-04-05T04:17:43;101727.88;;;1.75;100.00
41945;BME280;63122;52.424;13.458;2023-04-05T04:19:38;101718.31;;;1.76;100.00
41945;BME280;63122;52.424;13.458;2023-04-05T04:21:36;101723.44;;;1.77;100.00
41945;BME280;63122;52.424;13.458;2023-04-05T04:23:32;101715.66;;;1.77;100.00
41945;BME280;63122;52.424;13.458;2023-04-05T04:25:30;101721.75;;;1.76;100.00
41945;BME280;63122;52.424;13.458;2023-04-05T04:27:25;101721.81;;;1.75;100.00
41945;BME280;63122;52.424;13.458;2023-04-05T04:29:20;101721.91;;;1.73;100.00
41945;BME280;63122;52.424;13.458;2023-04-05T04:31:25;101729.00;;;1.69;100.00
41945;BME280;63122;52.424;13.458;2023-04-05T04:33:20;101720.41;;;1.67;100.00
41945;BME280;63122;52.424;13.458;2023-04-05T04:35:15;101723.97;;;1.65;100.00
41945;BME280;63122;52.424;13.458;2023-04-05T04:37:15;101724.06;;;1.63;100.00
41945;BME280;63122;52.424;13.458;2023-04-05T04:39:13;101726.56;;;1.65;100.00
41945;BME280;63122;52.424;13.458;2023-04-05T04:41:09;101727.25;;;1.70;100.00
41945;BME280;63122;52.424;13.458;2023-04-05T04:43:05;101725.34;;;1.73;100.00
41945;BME280;63122;52.424;13.458;2023-04-05T04:45:01;101731.31;;;1.76;100.00
41945;BME280;63122;52.424;13.458;2023-04-05T04:46:57;101726.06;;;1.77;100.00
41945;BME280;63122;52.424;13.458;2023-04-05T04:48:52;101726.88;;;1.78;100.00
41945;BME280;63122;52.424;13.458;2023-04-05T04:50:48;101727.75;;;1.78;100.00
41945;BME280;63122;52.424;13.458;2023-04-05T04:52:46;101723.38;;;1.79;100.00
41945;BME280;63122;52.424;13.458;2023-04-05T04:54:42;101721.69;;;1.78;100.00
41945;BME280;63122;52.424;13.458;2023-04-05T04:56:38;101724.56;;;1.71;100.00
41945;BME280;63122;52.424;13.458;2023-04-05T04:58:33;101722.59;;;1.77;100.00
41945;BME280;63122;52.424;13.458;2023-04-05T05:00:28;101718.06;;;1.82;100.00
41945;BME280;63122;52.424;13.458;2023-04-05T05:02:24;101724.72;;;1.87;100.00
41945;BME280;63122;52.424;13.458;2023-04-05T05:04:22;101725.78;;;1.83;100.00
41945;BME280;63122;52.424;13.458;2023-04-05T05:06:17;101725.56;;;1.88;100.00
41945;BME280;63122;52.424;13.458;2023-04-05T05:08:16;101729.34;;;1.81;100.00
41945;BME280;63122;52.424;13.458;2023-04-05T05:10:13;101729.34;;;1.81;100.00
41945;BME280;63122;52.424;13.458;2023-04-05T05:12:10;101731.84;;;1.84;100.00
41945;BME280;63122;52.424;13.458;2023-04-05T05:14:05;101730.78;;;1.88;100.00
41945;BME280;63122;52.424;13.458;2023-04-05T05:16:00;101727.31;;;1.87;100.00
41945;BME280;63122;52.424;13.458;2023-04-05T05:17:57;101729.88;;;1.89;100.00
41945;BME280;63122;52.424;13.458;2023-04-05T05:19:50;101718.75;;;1.85;100.00
41945;BME280;63122;52.424;13.458;2023-04-05T05:21:47;101724.81;;;1.86;100.00
41945;BME280;63122;52.424;13.458;2023-04-05T05:23:47;101724.84;;;1.84;100.00
41945;BME280;63122;52.424;13.458;2023-04-05T05:25:43;101722.13;;;1.87;100.00
41945;BME280;63122;52.424;13.458;2023-04-05T05:27:38;101717.78;;;1.88;100.00
41945;BME280;63122;52.424;13.458;2023-04-05T05:29:33;101716.50;;;1.97;100.00
41945;BME280;63122;52.424;13.458;2023-04-05T05:31:28;101716.44;;;1.98;100.00
41945;BME280;63122;52.424;13.458;2023-04-05T05:33:25;101721.63;;;1.98;100.00
41945;BME280;63122;52.424;13.458;2023-04-05T05:35:20;101720.81;;;1.98;100.00
41945;BME280;63122;52.424;13.458;2023-04-05T05:37:16;101713.06;;;1.96;100.00
41945;BME280;63122;52.424;13.458;2023-04-05T05:39:14;101715.59;;;1.98;100.00
41945;BME280;63122;52.424;13.458;2023-04-05T05:41:09;101716.38;;;2.00;100.00
41945;BME280;63122;52.424;13.458;2023-04-05T05:43:04;101718.06;;;2.01;100.00
41945;BME280;63122;52.424;13.458;2023-04-05T05:45:04;101711.94;;;2.02;100.00
41945;BME280;63122;52.424;13.458;2023-04-05T05:46:59;101714.75;;;1.97;100.00
41945;BME280;63122;52.424;13.458;2023-04-05T05:48:55;101718.75;;;2.05;100.00
41945;BME280;63122;52.424;13.458;2023-04-05T05:50:50;101707.34;;;2.07;100.00
41945;BME280;63122;52.424;13.458;2023-04-05T05:52:46;101711.66;;;2.08;100.00
41945;BME280;63122;52.424;13.458;2023-04-05T05:54:43;101714.19;;;2.10;100.00
41945;BME280;63122;52.424;13.458;2023-04-05T05:56:39;101714.81;;;2.15;100.00
41945;BME280;63122;52.424;13.458;2023-04-05T05:58:34;101714.69;;;2.18;100.00
41945;BME280;63122;52.424;13.458;2023-04-05T06:00:30;101715.44;;;2.20;100.00
41945;BME280;63122;52.424;13.458;2023-04-05T06:02:25;101712.69;;;2.23;100.00
41945;BME280;63122;52.424;13.458;2023-04-05T06:04:20;101704.84;;;2.25;100.00
41945;BME280;63122;52.424;13.458;2023-04-05T06:06:16;101699.81;;;2.20;100.00
41945;BME280;63122;52.424;13.458;2023-04-05T06:08:12;101710.03;;;2.25;100.00
41945;BME280;63122;52.424;13.458;2023-04-05T06:10:10;101698.69;;;2.26;100.00
41945;BME280;63122;52.424;13.458;2023-04-05T06:12:06;101704.44;;;2.33;100.00
41945;BME280;63122;52.424;13.458;2023-04-05T06:14:02;101708.69;;;2.35;100.00
41945;BME280;63122;52.424;13.458;2023-04-05T06:16:00;101697.41;;;2.35;100.00
41945;BME280;63122;52.424;13.458;2023-04-05T06:17:55;101693.97;;;2.34;100.00
41945;BME280;63122;52.424;13.458;2023-04-05T06:19:50;101688.66;;;2.36;100.00
41945;BME280;63122;52.424;13.458;2023-04-05T06:21:45;101699.75;;;2.41;100.00
41945;BME280;63122;52.424;13.458;2023-04-05T06:23:41;101702.34;;;2.41;100.00
41945;BME280;63122;52.424;13.458;2023-04-05T06:25:39;101700.91;;;2.53;100.00
41945;BME280;63122;52.424;13.458;2023-04-05T06:27:35;101704.75;;;2.63;100.00
41945;BME280;63122;52.424;13.458;2023-04-05T06:29:30;101711.91;;;2.77;100.00
41945;BME280;63122;52.424;13.458;2023-04-05T06:31:29;101718.44;;;2.86;100.00
41945;BME280;63122;52.424;13.458;2023-04-05T06:33:25;101710.16;;;2.95;100.00
41945;BME280;63122;52.424;13.458;2023-04-05T06:35:20;101707.84;;;2.89;100.00
41945;BME280;63122;52.424;13.458;2023-04-05T06:37:16;101712.34;;;2.85;100.00
41945;BME280;63122;52.424;13.458;2023-04-05T06:39:12;101713.06;;;2.89;100.00
41945;BME280;63122;52.424;13.458;2023-04-05T06:41:10;101708.31;;;2.97;100.00
41945;BME280;63122;52.424;13.458;2023-04-05T06:43:05;101712.44;;;3.01;100.00
41945;BME280;63122;52.424;13.458;2023-04-05T06:45:01;101710.38;;;3.08;100.00
41945;BME280;63122;52.424;13.458;2023-04-05T06:46:57;101714.34;;;3.15;100.00
41945;BME280;63122;52.424;13.458;2023-04-05T06:48:53;101711.59;;;3.19;100.00
41945;BME280;63122;52.424;13.458;2023-04-05T06:50:55;101719.28;;;3.22;100.00
41945;BME280;63122;52.424;13.458;2023-04-05T06:52:51;101723.72;;;3.37;100.00
41945;BME280;63122;52.424;13.458;2023-04-05T06:54:46;101722.72;;;3.40;100.00
41945;BME280;63122;52.424;13.458;2023-04-05T06:56:44;101717.56;;;3.38;100.00
41945;BME280;63122;52.424;13.458;2023-04-05T06:58:40;101717.72;;;3.35;100.00
41945;BME280;63122;52.424;13.458;2023-04-05T07:00:35;101722.78;;;3.38;100.00
41945;BME280;63122;52.424;13.458;2023-04-05T07:02:31;101715.66;;;3.42;100.00
41945;BME280;63122;52.424;13.458;2023-04-05T07:04:27;101714.56;;;3.46;100.00
41945;BME280;63122;52.424;13.458;2023-04-05T07:06:27;101714.34;;;3.51;100.00
41945;BME280;63122;52.424;13.458;2023-04-05T07:08:24;101719.41;;;3.54;100.00
41945;BME280;63122;52.424;13.458;2023-04-05T07:10:20;101710.47;;;3.58;100.00
41945;BME280;63122;52.424;13.458;2023-04-05T07:12:17;101713.75;;;3.62;100.00
41945;BME280;63122;52.424;13.458;2023-04-05T07:14:14;101707.47;;;3.66;100.00
41945;BME280;63122;52.424;13.458;2023-04-05T07:16:09;101715.03;;;3.70;100.00
41945;BME280;63122;52.424;13.458;2023-04-05T07:18:05;101707.16;;;3.72;100.00
41945;BME280;63122;52.424;13.458;2023-04-05T07:20:00;101704.38;;;3.75;100.00
41945;BME280;63122;52.424;13.458;2023-04-05T07:21:58;101705.19;;;3.75;100.00
41945;BME280;63122;52.424;13.458;2023-04-05T07:23:53;101704.91;;;3.82;100.00
41945;BME280;63122;52.424;13.458;2023-04-05T07:25:52;101702.34;;;3.80;100.00
41945;BME280;63122;52.424;13.458;2023-04-05T07:27:50;101697.22;;;3.79;100.00
41945;BME280;63122;52.424;13.458;2023-04-05T07:29:46;101697.28;;;3.77;100.00
41945;BME280;63122;52.424;13.458;2023-04-05T07:31:41;101703.00;;;3.68;100.00
41945;BME280;63122;52.424;13.458;2023-04-05T07:33:37;101691.81;;;3.66;100.00
41945;BME280;63122;52.424;13.458;2023-04-05T07:35:32;101692.84;;;3.79;100.00
41945;BME280;63122;52.424;13.458;2023-04-05T07:37:28;101693.06;;;3.74;100.00
41945;BME280;63122;52.424;13.458;2023-04-05T07:39:23;101688.31;;;3.83;100.00
41945;BME280;63122;52.424;13.458;2023-04-05T07:41:19;101684.06;;;3.80;100.00
41945;BME280;63122;52.424;13.458;2023-04-05T07:43:18;101689.72;;;3.88;100.00
41945;BME280;63122;52.424;13.458;2023-04-05T07:45:14;101690.34;;;3.94;100.00
41945;BME280;63122;52.424;13.458;2023-04-05T07:47:09;101703.88;;;4.00;100.00
41945;BME280;63122;52.424;13.458;2023-04-05T07:49:04;101686.88;;;4.09;100.00
41945;BME280;63122;52.424;13.458;2023-04-05T07:51:04;101692.84;;;4.11;100.00
41945;BME280;63122;52.424;13.458;2023-04-05T07:53:00;101698.41;;;4.21;100.00
41945;BME280;63122;52.424;13.458;2023-04-05T07:54:55;101696.16;;;4.31;100.00
41945;BME280;63122;52.424;13.458;2023-04-05T07:56:50;101703.91;;;4.49;100.00
41945;BME280;63122;52.424;13.458;2023-04-05T07:58:49;101705.13;;;4.57;100.00
41945;BME280;63122;52.424;13.458;2023-04-05T08:00:46;101712.88;;;4.59;100.00
41945;BME280;63122;52.424;13.458;2023-04-05T08:02:41;101711.59;;;4.66;100.00
41945;BME280;63122;52.424;13.458;2023-04-05T08:04:37;101706.78;;;4.74;100.00
41945;BME280;63122;52.424;13.458;2023-04-05T08:06:32;101714.94;;;4.84;100.00
41945;BME280;63122;52.424;13.458;2023-04-05T08:08:28;101708.16;;;4.96;100.00
41945;BME280;63122;52.424;13.458;2023-04-05T08:10:23;101714.56;;;5.07;100.00
41945;BME280;63122;52.424;13.458;2023-04-05T08:12:19;101701.19;;;5.11;100.00
41945;BME280;63122;52.424;13.458;2023-04-05T08:14:17;101704.22;;;5.19;100.00
41945;BME280;63122;52.424;13.458;2023-04-05T08:16:12;101696.19;;;5.23;100.00
41945;BME280;63122;52.424;13.458;2023-04-05T08:18:08;101700.47;;;5.24;100.00
41945;BME280;63122;52.424;13.458;2023-04-05T08:20:05;101699.25;;;5.29;100.00
41945;BME280;63122;52.424;13.458;2023-04-05T08:22:00;101694.78;;;5.31;100.00
41945;BME280;63122;52.424;13.458;2023-04-05T08:23:55;101700.47;;;5.38;100.00
41945;BME280;63122;52.424;13.458;2023-04-05T08:25:51;101696.72;;;5.42;100.00
41945;BME280;63122;52.424;13.458;2023-04-05T08:27:47;101689.16;;;5.52;100.00
41945;BME280;63122;52.424;13.458;2023-04-05T08:29:45;101694.81;;;5.60;100.00
41945;BME280;63122;52.424;13.458;2023-04-05T08:31:41;101696.94;;;5.68;100.00
41945;BME280;63122;52.424;13.458;2023-04-05T08:33:36;101694.22;;;5.70;100.00
41945;BME280;63122;52.424;13.458;2023-04-05T08:35:35;101696.50;;;5.61;100.00
41945;BME280;63122;52.424;13.458;2023-04-05T08:37:32;101693.00;;;5.61;100.00
41945;BME280;63122;52.424;13.458;2023-04-05T08:39:28;101689.84;;;5.56;100.00
41945;BME280;63122;52.424;13.458;2023-04-05T08:41:31;101697.78;;;5.69;100.00
41945;BME280;63122;52.424;13.458;2023-04-05T08:43:43;101690.47;;;5.88;100.00
41945;BME280;63122;52.424;13.458;2023-04-05T08:45:46;101685.59;;;6.11;100.00
41945;BME280;63122;52.424;13.458;2023-04-05T08:47:42;101680.47;;;6.10;100.00
41945;BME280;63122;52.424;13.458;2023-04-05T08:49:41;101681.69;;;6.04;100.00
41945;BME280;63122;52.424;13.458;2023-04-05T08:51:37;101684.56;;;6.14;100.00
41945;BME280;63122;52.424;13.458;2023-04-05T08:53:33;101686.97;;;6.31;96.00
41945;BME280;63122;52.424;13.458;2023-04-05T08:55:28;101691.63;;;6.26;95.25
41945;BME280;63122;52.424;13.458;2023-04-05T08:57:24;101686.09;;;6.31;96.16
41945;BME280;63122;52.424;13.458;2023-04-05T08:59:21;101688.22;;;6.39;96.75
41945;BME280;63122;52.424;13.458;2023-04-05T09:01:20;101686.81;;;6.47;100.00
41945;BME280;63122;52.424;13.458;2023-04-05T09:03:18;101692.38;;;6.56;100.00
41945;BME280;63122;52.424;13.458;2023-04-05T09:05:16;101689.88;;;6.67;100.00
41945;BME280;63122;52.424;13.458;2023-04-05T09:07:13;101692.47;;;6.95;97.17
41945;BME280;63122;52.424;13.458;2023-04-05T09:09:08;101690.91;;;7.18;94.72
41945;BME280;63122;52.424;13.458;2023-04-05T09:11:04;101688.81;;;7.36;86.68
41945;BME280;63122;52.424;13.458;2023-04-05T09:12:59;101682.63;;;7.50;86.18
41945;BME280;63122;52.424;13.458;2023-04-05T09:14:55;101685.56;;;7.71;86.46
41945;BME280;63122;52.424;13.458;2023-04-05T09:16:53;101683.72;;;7.85;84.25
41945;BME280;63122;52.424;13.458;2023-04-05T09:18:50;101686.31;;;7.98;80.32
41945;BME280;63122;52.424;13.458;2023-04-05T09:20:45;101675.44;;;8.15;75.88
41945;BME280;63122;52.424;13.458;2023-04-05T09:22:44;101687.47;;;8.31;75.90
41945;BME280;63122;52.424;13.458;2023-04-05T09:24:41;101690.00;;;8.57;83.48
41945;BME280;63122;52.424;13.458;2023-04-05T09:26:38;101681.47;;;8.66;78.79
41945;BME280;63122;52.424;13.458;2023-04-05T09:28:40;101688.50;;;8.66;71.09
41945;BME280;63122;52.424;13.458;2023-04-05T09:30:36;101689.94;;;8.45;65.07
41945;BME280;63122;52.424;13.458;2023-04-05T09:32:34;101684.63;;;7.97;67.62
41945;BME280;63122;52.424;13.458;2023-04-05T09:34:31;101685.06;;;8.03;70.28
41945;BME280;63122;52.424;13.458;2023-04-05T09:36:28;101669.13;;;8.18;71.12
41945;BME280;63122;52.424;13.458;2023-04-05T09:38:41;101687.72;;;8.15;69.86
41945;BME280;63122;52.424;13.458;2023-04-05T09:40:42;101679.94;;;8.26;67.72
41945;BME280;63122;52.424;13.458;2023-04-05T09:42:43;101684.50;;;8.35;68.33
41945;BME280;63122;52.424;13.458;2023-04-05T09:44:52;101674.72;;;8.38;66.16
41945;BME280;63122;52.424;13.458;2023-04-05T09:46:47;101674.47;;;8.54;67.54
41945;BME280;63122;52.424;13.458;2023-04-05T09:48:49;101675.97;;;8.69;69.80
41945;BME280;63122;52.424;13.458;2023-04-05T09:50:44;101669.78;;;8.82;69.36
41945;BME280;63122;52.424;13.458;2023-04-05T09:52:40;101677.28;;;8.75;65.66
41945;BME280;63122;52.424;13.458;2023-04-05T09:54:41;101669.91;;;8.91;66.16
41945;BME280;63122;52.424;13.458;2023-04-05T09:56:38;101668.06;;;9.28;61.57
41945;BME280;63122;52.424;13.458;2023-04-05T09:58:34;101668.78;;;9.18;58.95
41945;BME280;63122;52.424;13.458;2023-04-05T10:00:30;101664.69;;;9.26;58.44
41945;BME280;63122;52.424;13.458;2023-04-05T10:02:34;101657.03;;;9.57;58.55
41945;BME280;63122;52.424;13.458;2023-04-05T10:04:40;101661.50;;;9.56;59.77
41945;BME280;63122;52.424;13.458;2023-04-05T10:06:37;101655.25;;;9.46;57.55
41945;BME280;63122;52.424;13.458;2023-04-05T10:08:33;101660.53;;;9.23;58.41